Flight Track Log - Related Links

Times and Time Zones

All times are in EDT time to prevent confusion due to time zone crossing. See the ELY318 flight status page for this flight to view local times or setup timezone preferences in your user account.

Time Position Orientation Groundspeed Altitude Reporting Facility
EDT Latitude Longitude Course Direction KTS MPH feet Rate Location/Type
Tue 06:24:37 PM 51.4776 -0.5236 266° West 154 177 2,600  Level FlightAware ADS-B
Tue 06:24:42 PM 51.4774 -0.5283 258° West 160 184 2,700 667 Climbing FlightAware ADS-B
Tue 06:24:46 PM 51.4768 -0.5330 246° West 164 189 2,700  Level FlightAware ADS-B
Tue 06:24:50 PM 51.4755 -0.5377 237° Southwest 169 194 2,700 750 Level FlightAware ADS-B
Tue 06:24:54 PM 51.4738 -0.5419 228° Southwest 174 200 2,800 857 Climbing FlightAware ADS-B
Tue 06:24:57 PM 51.4717 -0.5457 212° Southwest 180 207 2,800  Level FlightAware ADS-B
Tue 06:25:00 PM 51.4693 -0.5481 204° Southwest 188 216 2,800  Level FlightAware ADS-B
Tue 06:25:04 PM 51.4666 -0.5501 203° Southwest 194 223 2,800 857 Level FlightAware ADS-B
Tue 06:25:07 PM 51.4638 -0.5520 188° South 200 230 2,900 857 Climbing FlightAware ADS-B
Tue 06:25:11 PM 51.4601 -0.5528 182° South 209 241 2,900  Level FlightAware ADS-B
Tue 06:25:15 PM 51.4557 -0.5531 173° South 217 250 2,900 667 Level FlightAware ADS-B
Tue 06:25:20 PM 51.4514 -0.5522 165° South 226 260 3,000 1,500 Climbing FlightAware ADS-B
Tue 06:25:23 PM 51.4483 -0.5509 161° South 230 265 3,100 1,000 Climbing FlightAware ADS-B
Tue 06:25:26 PM 51.4452 -0.5492 157° South 236 272 3,100 1,000 Level FlightAware ADS-B
Tue 06:25:29 PM 51.4420 -0.5470 151° Southeast 241 277 3,200 1,714 Climbing FlightAware ADS-B
Tue 06:25:33 PM 51.4383 -0.5436 150° Southeast 245 282 3,300 1,500 Climbing FlightAware ADS-B
Tue 06:25:37 PM 51.4343 -0.5399 148° Southeast 251 289 3,400 1,500 Climbing FlightAware ADS-B
Tue 06:25:41 PM 51.4303 -0.5358 144° Southeast 255 293 3,500 1,333 Climbing FlightAware ADS-B
Tue 06:25:46 PM 51.4256 -0.5302 142° Southeast 260 299 3,600 1,500 Climbing FlightAware ADS-B
Tue 06:25:49 PM 51.4227 -0.5267 140° Southeast 262 302 3,700 2,571 Climbing FlightAware ADS-B
Tue 06:25:53 PM 51.4191 -0.5219 141° Southeast 264 304 3,900 2,571 Climbing FlightAware ADS-B
Tue 06:25:56 PM 51.4162 -0.5181 144° Southeast 265 305 4,000 3,000 Climbing FlightAware ADS-B
Tue 06:25:59 PM 51.4129 -0.5142 138° Southeast 266 306 4,200 3,000 Climbing FlightAware ADS-B
Tue 06:26:02 PM 51.4102 -0.5103 135° Southeast 266 306 4,300 2,571 Climbing FlightAware ADS-B
Tue 06:26:06 PM 51.4070 -0.5051 138° Southeast 268 308 4,500 3,333 Climbing FlightAware ADS-B
Tue 06:26:11 PM 51.4015 -0.4971 138° Southeast 269 310 4,800 2,800 Climbing FlightAware ADS-B
Tue 06:26:21 PM 51.3931 -0.4849 137° Southeast 269 310 5,200 2,571 Climbing FlightAware ADS-B
Tue 06:26:25 PM 51.3895 -0.4795 139° Southeast 270 311 5,400 2,667 Climbing FlightAware ADS-B
Tue 06:26:30 PM 51.3845 -0.4726 136° Southeast 271 312 5,600 2,769 Climbing FlightAware ADS-B
Tue 06:26:38 PM 51.3774 -0.4616 138° Southeast 271 312 6,000 2,800 Climbing FlightAware ADS-B
Tue 06:26:45 PM 51.3709 -0.4520 138° Southeast 272 313 6,300 2,400 Climbing FlightAware ADS-B
Tue 06:26:48 PM 51.3680 -0.4478 130° Southeast 274 315 6,400 2,571 Climbing FlightAware ADS-B
Tue 06:26:52 PM 51.3647 -0.4416 121° Southeast 278 320 6,600 2,667 Climbing FlightAware ADS-B
Tue 06:26:57 PM 51.3614 -0.4329 118° Southeast 283 326 6,800 3,000 Climbing FlightAware ADS-B
Tue 06:27:00 PM 51.3590 -0.4256 116° Southeast 285 328 7,000 2,727 Climbing FlightAware ADS-B
Tue 06:27:08 PM 51.3549 -0.4119 112° Southeast 287 330 7,300 2,400 Climbing FlightAware ADS-B
Tue 06:27:15 PM 51.3515 -0.3981 107° East 291 335 7,600 2,500 Climbing FlightAware ADS-B
Tue 06:27:20 PM 51.3496 -0.3879 100° East 293 337 7,800 2,727 Climbing FlightAware ADS-B
Tue 06:27:26 PM 51.3482 -0.3749 98° East 296 341 8,100 2,727 Climbing FlightAware ADS-B
Tue 06:27:42 PM 51.3451 -0.3401 97° East 299 344 8,800 2,625 Climbing FlightAware ADS-B
Tue 06:27:58 PM 51.3424 -0.3051 96° East 300 345 9,500 2,217 Climbing FlightAware ADS-B
Tue 06:28:28 PM 51.3377 -0.2379 96° East 314 361 10,500 1,500 Climbing FlightAware ADS-B
Tue 06:28:58 PM 51.3327 -0.1652 96° East 346 398 11,000 1,000 Climbing FlightAware ADS-B
Tue 06:29:28 PM 51.3271 -0.0828 97° East 374 430 11,500 1,475 Climbing FlightAware ADS-B
Tue 06:29:59 PM 51.3209 0.0018 97° East 389 448 12,500 2,164 Climbing FlightAware ADS-B
Tue 06:30:29 PM 51.3143 0.0911 97° East 396 456 13,700 2,419 Climbing FlightAware ADS-B
Tue 06:31:01 PM 51.3074 0.1817 97° East 403 464 15,000 2,381 Climbing FlightAware ADS-B
Tue 06:31:32 PM 51.3005 0.2740 97° East 409 471 16,200 2,286 Climbing FlightAware ADS-B
Tue 06:32:04 PM 51.2930 0.3709 97° East 417 480 17,400 2,323 Climbing FlightAware ADS-B
Tue 06:32:34 PM 51.2857 0.4664 97° East 423 487 18,600 2,286 Climbing FlightAware ADS-B
Tue 06:33:07 PM 51.2778 0.5694 97° East 430 495 19,800 2,063 Climbing FlightAware ADS-B
Tue 06:33:38 PM 51.2700 0.6647 97° East 436 502 20,800 1,905 Climbing FlightAware ADS-B
Tue 06:34:10 PM 51.2618 0.7679 97° East 447 514 21,800 1,935 Climbing FlightAware ADS-B
Tue 06:34:40 PM 51.2538 0.8667 97° East 454 522 22,800 1,900 Climbing FlightAware ADS-B
Tue 06:35:10 PM 51.2455 0.9704 98° East 462 532 23,700 1,770 Climbing FlightAware ADS-B
Tue 06:35:41 PM 51.2369 1.0725 98° East 468 539 24,600 1,869 Climbing FlightAware ADS-B
Tue 06:36:11 PM 51.2283 1.1757 98° East 473 544 25,600 1,800 Climbing FlightAware ADS-B
Tue 06:36:41 PM 51.2193 1.2833 98° East 479 551 26,400 1,652 Climbing FlightAware ADS-B
Tue 06:37:20 PM 51.2077 1.4169 100° East 485 558 27,500 1,667 Climbing FlightAware ADS-B
Tue 06:37:35 PM 51.2015 1.4730 105° East 485 558 27,900 1,692 Climbing FlightAware ADS-B
Tue 06:37:59 PM 51.1872 1.5553 110° East 483 556 28,600 1,571 Climbing FlightAware ADS-B
Tue 06:38:17 PM 51.1733 1.6151 114° Southeast 483 556 29,000 1,500 Climbing FlightAware ADS-B
Tue 06:38:47 PM 51.1461 1.7128 114° Southeast 485 558 29,800 1,574 Climbing FlightAware ADS-B
Tue 06:39:18 PM 51.1183 1.8111 114° Southeast 490 564 30,600 1,475 Climbing FlightAware ADS-B
Tue 06:39:48 PM 51.0900 1.9100 114° Southeast 495 570 31,300 1,377 Climbing FlightAware ADS-B
Tue 06:40:19 PM 51.0610 2.0134 114° Southeast 499 574 32,000 1,475 Climbing FlightAware ADS-B
Tue 06:40:49 PM 51.0320 2.1167 114° Southeast 499 574 32,800 1,700 Climbing FlightAware ADS-B
Tue 06:41:19 PM 51.0033 2.2167 115° Southeast 499 574 33,700 1,524 Climbing FlightAware ADS-B
Tue 06:41:52 PM 50.9716 2.3229 114° Southeast 501 577 34,400 1,313 Climbing FlightAware ADS-B
Tue 06:42:23 PM 50.9419 2.4263 115° Southeast 502 578 35,100 1,377 Climbing FlightAware ADS-B
Tue 06:42:53 PM 50.9127 2.5263 114° Southeast 502 578 35,800 1,371 Climbing FlightAware ADS-B
Tue 06:43:33 PM 50.8752 2.6601 116° Southeast 500 575 36,700 1,350 Climbing FlightAware ADS-B
Tue 06:51:15 PM 50.5099 3.8114 117° Southeast  Level Estimated
Tue 06:52:15 PM 50.4616 3.9595 117° Southeast  Level Estimated
Tue 06:53:15 PM 50.4131 4.1075 117° Southeast  Level Estimated
Tue 06:54:15 PM 50.3645 4.2551 117° Southeast  Level Estimated
Tue 06:55:15 PM 50.3156 4.4023 118° Southeast  Level Estimated
Tue 06:56:15 PM 50.2666 4.5493 118° Southeast  Level Estimated
Tue 06:57:15 PM 50.2174 4.6960 118° Southeast  Level Estimated
Tue 06:58:15 PM 50.1680 4.8424 118° Southeast  Level Estimated
Tue 06:59:15 PM 50.1051 5.0278 118° Southeast  Level Estimated
Tue 07:00:15 PM 50.0418 5.2126 118° Southeast  Level Estimated
Tue 07:01:15 PM 49.9783 5.3970 118° Southeast  Level Estimated
Tue 07:02:15 PM 49.9145 5.5809 118° Southeast  Level Estimated
Tue 07:03:15 PM 49.8503 5.7643 119° Southeast  Level Estimated
Tue 07:04:15 PM 49.7859 5.9472 119° Southeast  Level Estimated
Tue 07:05:15 PM 49.7212 6.1297 119° Southeast  Level Estimated
Tue 07:06:15 PM 49.6562 6.3116 119° Southeast  Level Estimated
Tue 07:07:15 PM 49.5910 6.4931 119° Southeast  Level Estimated
Tue 07:08:15 PM 49.5254 6.6741 119° Southeast  Level Estimated
Tue 07:09:15 PM 49.4596 6.8546 119° Southeast  Level Estimated
Tue 07:10:15 PM 49.3935 7.0346 120° Southeast  Level Estimated
Tue 07:11:15 PM 49.3271 7.2141 120° Southeast  Level Estimated
Tue 07:12:15 PM 49.2604 7.3931 120° Southeast  Level Estimated
Tue 07:13:15 PM 49.1935 7.5717 120° Southeast  Level Estimated
Tue 07:14:15 PM 49.1263 7.7498 120° Southeast  Level Estimated
Tue 07:15:15 PM 49.0588 7.9274 120° Southeast  Level Estimated
Tue 07:16:15 PM 48.9910 8.1045 120° Southeast  Level Estimated
Tue 07:17:15 PM 48.9230 8.2811 120° Southeast  Level Estimated
Tue 07:18:15 PM 48.8547 8.4572 121° Southeast  Level Estimated
Tue 07:19:15 PM 48.7861 8.6329 121° Southeast  Level Estimated
Tue 07:20:15 PM 48.7173 8.8081 121° Southeast  Level Estimated
Tue 07:21:15 PM 48.6482 8.9827 121° Southeast  Level Estimated
Tue 07:22:15 PM 48.5788 9.1570 121° Southeast  Level Estimated
Tue 07:23:15 PM 48.5092 9.3307 121° Southeast  Level Estimated
Tue 07:24:15 PM 48.4393 9.5040 121° Southeast  Level Estimated
Tue 07:25:15 PM 48.3691 9.6768 122° Southeast  Level Estimated
Tue 07:26:15 PM 48.2987 9.8491 122° Southeast  Level Estimated
Tue 07:27:15 PM 48.2281 10.0209 122° Southeast  Level Estimated
Tue 07:28:15 PM 48.1572 10.1923 122° Southeast  Level Estimated
Tue 07:29:15 PM 48.0860 10.3632 122° Southeast  Level Estimated
Tue 07:30:15 PM 48.0146 10.5336 122° Southeast  Level Estimated
Tue 07:31:15 PM 47.9429 10.7035 122° Southeast  Level Estimated
Tue 07:32:15 PM 47.8710 10.8730 122° Southeast  Level Estimated
Tue 07:33:15 PM 47.7988 11.0420 123° Southeast  Level Estimated
Tue 07:34:15 PM 47.7264 11.2105 123° Southeast  Level Estimated
Tue 07:35:15 PM 47.6537 11.3786 123° Southeast  Level Estimated
Tue 07:36:15 PM 47.5808 11.5462 123° Southeast  Level Estimated
Tue 07:37:15 PM 47.5076 11.7133 123° Southeast  Level Estimated
Tue 07:38:15 PM 47.4342 11.8799 123° Southeast  Level Estimated
Tue 07:39:15 PM 47.3606 12.0462 123° Southeast  Level Estimated
Tue 07:40:15 PM 47.2867 12.2119 123° Southeast  Level Estimated
Tue 07:41:15 PM 47.2126 12.3771 124° Southeast  Level Estimated
Tue 07:42:15 PM 47.1383 12.5420 124° Southeast  Level Estimated
Tue 07:43:15 PM 47.0637 12.7063 124° Southeast  Level Estimated
Tue 07:44:15 PM 46.9888 12.8702 124° Southeast  Level Estimated
Tue 07:45:15 PM 46.9138 13.0336 124° Southeast  Level Estimated
Tue 07:46:15 PM 46.8385 13.1966 124° Southeast  Level Estimated
Tue 07:47:15 PM 46.7630 13.3591 124° Southeast  Level Estimated
Tue 07:48:15 PM 46.6872 13.5212 124° Southeast  Level Estimated
Tue 07:49:15 PM 46.6113 13.6828 124° Southeast  Level Estimated
Tue 07:50:15 PM 46.5350 13.8439 125° Southeast  Level Estimated
Tue 07:51:15 PM 46.4586 14.0046 125° Southeast  Level Estimated
Tue 07:52:15 PM 46.3820 14.1649 125° Southeast  Level Estimated
Tue 07:53:15 PM 46.3051 14.3246 125° Southeast  Level Estimated
Tue 07:54:15 PM 46.2280 14.4840 125° Southeast  Level Estimated
Tue 07:55:15 PM 46.1507 14.6429 125° Southeast  Level Estimated
Tue 07:56:15 PM 46.0731 14.8013 125° Southeast  Level Estimated
Tue 07:57:15 PM 45.9954 14.9594 125° Southeast  Level Estimated
Tue 07:58:15 PM 45.9174 15.1169 126° Southeast  Level Estimated
Tue 07:59:15 PM 45.8392 15.2740 126° Southeast  Level Estimated
Tue 08:00:15 PM 45.7608 15.4307 126° Southeast  Level Estimated
Tue 08:01:15 PM 45.6822 15.5870 126° Southeast  Level Estimated
Tue 08:02:15 PM 45.6034 15.7428 126° Southeast  Level Estimated
Tue 08:03:15 PM 45.5243 15.8981 126° Southeast  Level Estimated
Tue 08:04:15 PM 45.4451 16.0530 126° Southeast  Level Estimated
Tue 08:05:15 PM 45.3656 16.2075 126° Southeast  Level Estimated
Tue 08:06:15 PM 45.2859 16.3616 126° Southeast  Level Estimated
Tue 08:07:15 PM 45.2061 16.5152 126° Southeast  Level Estimated
Tue 08:08:15 PM 45.1260 16.6684 127° Southeast  Level Estimated
Tue 08:09:15 PM 45.0457 16.8211 127° Southeast  Level Estimated
Tue 08:10:15 PM 44.9652 16.9735 127° Southeast  Level Estimated
Tue 08:11:15 PM 44.8845 17.1254 127° Southeast  Level Estimated
Tue 08:12:15 PM 44.8036 17.2769 127° Southeast  Level Estimated
Tue 08:13:15 PM 44.7225 17.4279 127° Southeast  Level Estimated
Tue 08:14:15 PM 44.6413 17.5786 127° Southeast  Level Estimated
Tue 08:15:15 PM 44.5598 17.7288 127° Southeast  Level Estimated
Tue 08:16:15 PM 44.4781 17.8786 127° Southeast  Level Estimated
Tue 08:17:15 PM 44.3962 18.0279 128° Southeast  Level Estimated
Tue 08:18:15 PM 44.3141 18.1769 128° Southeast  Level Estimated
Tue 08:19:15 PM 44.2319 18.3254 128° Southeast  Level Estimated
Tue 08:20:15 PM 44.1494 18.4735 128° Southeast  Level Estimated
Tue 08:21:15 PM 44.0668 18.6212 128° Southeast  Level Estimated
Tue 08:22:15 PM 43.9839 18.7685 128° Southeast  Level Estimated
Tue 08:23:15 PM 43.9009 18.9154 128° Southeast  Level Estimated
Tue 08:24:15 PM 43.8177 19.0619 128° Southeast  Level Estimated
Tue 08:25:15 PM 43.7343 19.2080 128° Southeast  Level Estimated
Tue 08:26:15 PM 43.6507 19.3536 128° Southeast  Level Estimated
Tue 08:27:15 PM 43.5670 19.4989 129° Southeast  Level Estimated
Tue 08:28:15 PM 43.4830 19.6437 129° Southeast  Level Estimated
Tue 08:29:15 PM 43.3989 19.7882 129° Southeast  Level Estimated
Tue 08:30:15 PM 43.3145 19.9322 129° Southeast  Level Estimated
Tue 08:31:15 PM 43.2300 20.0759 129° Southeast  Level Estimated
Tue 08:32:15 PM 43.1454 20.2191 129° Southeast  Level Estimated
Tue 08:33:15 PM 43.0605 20.3620 129° Southeast  Level Estimated
Tue 08:34:15 PM 42.9755 20.5044 129° Southeast  Level Estimated
Tue 08:35:15 PM 42.8903 20.6465 129° Southeast  Level Estimated
Tue 08:36:15 PM 42.8049 20.7882 129° Southeast  Level Estimated
Tue 08:37:15 PM 42.7193 20.9294 130° Southeast  Level Estimated
Tue 08:38:15 PM 42.6336 21.0703 130° Southeast  Level Estimated
Tue 08:39:15 PM 42.5477 21.2108 130° Southeast  Level Estimated
Tue 08:40:15 PM 42.4616 21.3509 130° Southeast  Level Estimated
Tue 08:41:15 PM 42.3754 21.4907 130° Southeast  Level Estimated
Tue 08:42:15 PM 42.2890 21.6300 130° Southeast  Level Estimated
Tue 08:43:15 PM 42.2024 21.7690 130° Southeast  Level Estimated
Tue 08:44:15 PM 42.1157 21.9076 130° Southeast  Level Estimated
Tue 08:45:15 PM 42.0288 22.0457 130° Southeast  Level Estimated
Tue 08:46:15 PM 41.9417 22.1836 130° Southeast  Level Estimated
Tue 08:47:15 PM 41.8544 22.3210 131° Southeast  Level Estimated
Tue 08:48:15 PM 41.7670 22.4581 131° Southeast  Level Estimated
Tue 08:49:15 PM 41.6795 22.5948 131° Southeast  Level Estimated
Tue 08:50:15 PM 41.5917 22.7311 131° Southeast  Level Estimated
Tue 08:51:15 PM 41.5038 22.8671 131° Southeast  Level Estimated
Tue 08:52:15 PM 41.4158 23.0027 131° Southeast  Level Estimated
Tue 08:53:15 PM 41.3276 23.1379 131° Southeast  Level Estimated
Tue 08:54:15 PM 41.2392 23.2728 131° Southeast  Level Estimated
Tue 08:55:15 PM 41.1507 23.4072 131° Southeast  Level Estimated
Tue 08:56:15 PM 41.0620 23.5414 131° Southeast  Level Estimated
Tue 08:57:15 PM 40.9732 23.6751 131° Southeast  Level Estimated
Tue 08:58:15 PM 40.8842 23.8086 131° Southeast  Level Estimated
Tue 08:59:15 PM 40.7950 23.9416 132° Southeast  Level Estimated
Tue 09:00:15 PM 40.7057 24.0743 132° Southeast  Level Estimated
Tue 09:01:15 PM 40.6163 24.2066 132° Southeast  Level Estimated
Tue 09:02:15 PM 40.5267 24.3386 132° Southeast  Level Estimated
Tue 09:03:15 PM 40.4369 24.4702 132° Southeast  Level Estimated
Tue 09:04:15 PM 40.3470 24.6015 132° Southeast  Level Estimated
Tue 09:05:15 PM 40.2570 24.7325 132° Southeast  Level Estimated
Tue 09:06:15 PM 40.1668 24.8630 132° Southeast  Level Estimated
Tue 09:07:15 PM 40.0765 24.9933 132° Southeast  Level Estimated
Tue 09:08:15 PM 39.9860 25.1232 132° Southeast  Level Estimated
Tue 09:09:15 PM 39.8954 25.2527 132° Southeast  Level Estimated
Tue 09:10:15 PM 39.8046 25.3819 133° Southeast  Level Estimated
Tue 09:11:15 PM 39.7137 25.5108 133° Southeast  Level Estimated
Tue 09:12:15 PM 39.6226 25.6393 133° Southeast  Level Estimated
Tue 09:13:15 PM 39.5314 25.7675 133° Southeast  Level Estimated
Tue 09:14:15 PM 39.4401 25.8953 133° Southeast  Level Estimated
Tue 09:15:15 PM 39.3486 26.0228 133° Southeast  Level Estimated
Tue 09:16:15 PM 39.2570 26.1500 133° Southeast  Level Estimated
Tue 09:17:15 PM 39.1652 26.2768 133° Southeast  Level Estimated
Tue 09:18:15 PM 39.0733 26.4034 133° Southeast  Level Estimated
Tue 09:19:15 PM 38.9813 26.5296 133° Southeast  Level Estimated
Tue 09:20:15 PM 38.8891 26.6554 133° Southeast  Level Estimated
Tue 09:21:15 PM 38.7968 26.7809 133° Southeast  Level Estimated
Tue 09:22:15 PM 38.7044 26.9062 133° Southeast  Level Estimated
Tue 09:23:15 PM 38.6118 27.0310 134° Southeast  Level Estimated
Tue 09:24:15 PM 38.5191 27.1556 134° Southeast  Level Estimated
Tue 09:25:15 PM 38.4263 27.2798 134° Southeast  Level Estimated
Tue 09:26:15 PM 38.3333 27.4037 134° Southeast  Level Estimated
Tue 09:27:15 PM 38.2402 27.5273 134° Southeast  Level Estimated
Tue 09:28:15 PM 38.1470 27.6506 134° Southeast  Level Estimated
Tue 09:29:15 PM 38.0537 27.7736 134° Southeast  Level Estimated
Tue 09:30:15 PM 37.9602 27.8963 134° Southeast  Level Estimated
Tue 09:31:15 PM 37.8666 28.0186 134° Southeast  Level Estimated
Tue 09:32:15 PM 37.7729 28.1407 134° Southeast  Level Estimated
Tue 09:33:15 PM 37.6790 28.2624 134° Southeast  Level Estimated
Tue 09:34:15 PM 37.5850 28.3838 134° Southeast  Level Estimated
Tue 09:35:15 PM 37.4909 28.5049 134° Southeast  Level Estimated
Tue 09:36:15 PM 37.3967 28.6257 135° Southeast  Level Estimated
Tue 09:37:15 PM 37.3023 28.7462 135° Southeast  Level Estimated
Tue 09:38:15 PM 37.2079 28.8664 135° Southeast  Level Estimated
Tue 09:39:15 PM 37.1133 28.9863 135° Southeast  Level Estimated
Tue 09:40:15 PM 37.0186 29.1059 135° Southeast  Level Estimated
Tue 09:41:15 PM 36.9237 29.2252 135° Southeast  Level Estimated
Tue 09:42:15 PM 36.8288 29.3442 135° Southeast  Level Estimated
Tue 09:43:15 PM 36.7337 29.4629 135° Southeast  Level Estimated
Tue 09:44:15 PM 36.6385 29.5814 135° Southeast  Level Estimated
Tue 09:45:15 PM 36.5432 29.6995 135° Southeast  Level Estimated
Tue 09:46:15 PM 36.4478 29.8173 135° Southeast  Level Estimated
Tue 09:47:15 PM 36.3523 29.9349 135° Southeast  Level Estimated
Tue 09:48:15 PM 36.2566 30.0521 135° Southeast  Level Estimated
Tue 09:49:15 PM 36.1609 30.1691 135° Southeast  Level Estimated
Tue 09:50:15 PM 36.0650 30.2858 136° Southeast  Level Estimated
Tue 09:51:15 PM 35.9690 30.4022 136° Southeast  Level Estimated
Tue 09:52:15 PM 35.8729 30.5183 136° Southeast  Level Estimated
Tue 09:53:15 PM 35.7767 30.6341 136° Southeast  Level Estimated
Tue 09:54:15 PM 35.6803 30.7497 136° Southeast  Level Estimated
Tue 09:55:15 PM 35.5839 30.8650 136° Southeast  Level Estimated
Tue 09:56:15 PM 35.4873 30.9800 136° Southeast  Level Estimated
Tue 09:57:15 PM 35.3907 31.0947 136° Southeast  Level Estimated
Tue 09:58:15 PM 35.2939 31.2091 136° Southeast  Level Estimated
Tue 09:59:15 PM 35.1970 31.3233 136° Southeast  Level Estimated
Tue 10:00:15 PM 35.1001 31.4372 136° Southeast  Level Estimated
Tue 10:01:15 PM 35.0030 31.5508 136° Southeast  Level Estimated
Tue 10:02:15 PM 34.9058 31.6642 136° Southeast  Level Estimated
Tue 10:03:15 PM 34.8085 31.7773 136° Southeast  Level Estimated
Tue 10:04:15 PM 34.7111 31.8901 136° Southeast  Level Estimated
Tue 10:05:15 PM 34.6136 32.0027 137° Southeast  Level Estimated
Tue 10:06:15 PM 34.5160 32.1150 137° Southeast  Level Estimated
Tue 10:07:15 PM 34.4183 32.2270 137° Southeast  Level Estimated
Tue 10:08:15 PM 34.3205 32.3388 137° Southeast  Level Estimated
Tue 10:09:15 PM 34.2226 32.4503 137° Southeast  Level Estimated
Tue 10:10:15 PM 34.1246 32.5616 137° Southeast  Level Estimated
Tue 10:11:15 PM 34.0265 32.6726 137° Southeast  Level Estimated
Tue 10:12:15 PM 33.9282 32.7833 137° Southeast  Level Estimated
Tue 10:13:15 PM 33.8299 32.8938 137° Southeast  Level Estimated
Tue 10:14:15 PM 33.7315 33.0040 137° Southeast  Level Estimated
Tue 10:15:15 PM 33.6330 33.1140 137° Southeast  Level Estimated
Tue 10:16:15 PM 33.5344 33.2237 137° Southeast  Level Estimated
Tue 10:17:15 PM 33.4357 33.3332 137° Southeast  Level Estimated
Tue 10:18:15 PM 33.3369 33.4424 137° Southeast  Level Estimated
Tue 10:19:15 PM 33.2380 33.5514 137° Southeast  Level Estimated
Tue 10:20:15 PM 33.1390 33.6601 137° Southeast  Level Estimated
Tue 10:21:15 PM 33.0400 33.7686 137° Southeast  Level Estimated
Tue 10:22:15 PM 32.9408 33.8769 138° Southeast  Level Estimated
Tue 10:23:15 PM 32.8415 33.9849 138° Southeast  Level Estimated
Tue 10:24:15 PM 32.7421 34.0926 138° Southeast  Level Estimated
Tue 10:25:15 PM 32.6427 34.2001 138° Southeast  Level Estimated
Tue 10:26:15 PM 32.5432 34.3074 138° Southeast  Level Estimated
Tue 10:27:15 PM 32.4435 34.4145 138° Southeast  Level Estimated
Tue 10:28:15 PM 32.3438 34.5213 138° Southeast  Level Estimated
Tue 10:29:15 PM 32.2440 34.6278 138° Southeast  Level Estimated
Tue 10:30:15 PM 32.1441 34.7342 138° Southeast  Level Estimated
Tue 10:31:15 PM 32.0441 34.8403 138° Southeast  Level Estimated
Tue 10:32:15 PM 31.9440 34.9461 318° Northwest  Level Estimated
Tue 10:33:15 PM 32.0441 34.8403 138° Southeast  Level Estimated
Tue 10:34:15 PM 31.9440 34.9461 318° Northwest  Level Estimated
Tue 10:35:15 PM 32.0441 34.8403 138° Southeast  Level Estimated
Tue 10:36:15 PM 31.9440 34.9461 318° Northwest  Level Estimated
Tue 10:37:15 PM 32.0441 34.8403 138° Southeast  Level Estimated
Tue 10:38:15 PM 31.9440 34.9461 138° Southeast  Level Estimated

Login

Don't have an account? Register now (free) for customized features, flight alerts, and more!